Time;durP1;ratioP1;P1;durP2;ratioP2;P2;SDS_P1;SDS_P2;PMS_P1;PMS_P2;Temp;Humidity;BMP_temperature;BMP_pressure;BME280_temperature;BME280_humidity;BME280_pressure;Samples;Min_cycle;Max_cycle;Signal;HPM_P1;HPM_P2
2021/01/22 00:02:15;;;;;;;1.30;0.67;;;;;;;10.00;78.39;96219.47;5115982;28;20695;-71
2021/01/22 00:04:44;;;;;;;1.40;0.70;;;;;;;9.90;78.70;96187.06;5116126;28;20210;-70
2021/01/22 00:07:10;;;;;;;0.90;0.90;;;;;;;9.78;78.99;96189.06;5115663;28;20206;-68
2021/01/22 00:09:36;;;;;;;1.23;0.90;;;;;;;9.67;79.78;96191.06;5116229;28;20219;-69
2021/01/22 00:12:02;;;;;;;1.17;0.80;;;;;;;9.62;79.76;96182.78;5115577;28;20246;-70
2021/01/22 00:14:29;;;;;;;1.33;0.80;;;;;;;9.52;80.80;96176.72;5115749;28;20213;-70
2021/01/22 00:16:55;;;;;;;0.83;0.83;;;;;;;9.37;81.41;96163.19;5115628;28;20207;-69
2021/01/22 00:19:21;;;;;;;0.80;0.73;;;;;;;9.30;82.69;96166.56;5115515;28;20251;-69
2021/01/22 00:21:47;;;;;;;0.70;0.70;;;;;;;9.13;83.55;96162.06;5113635;28;20232;-68
2021/01/22 00:24:13;;;;;;;1.50;0.80;;;;;;;9.11;83.58;96150.84;5115337;28;20213;-70
2021/01/22 00:26:39;;;;;;;0.90;0.77;;;;;;;9.05;84.18;96152.22;5115524;28;20217;-69
2021/01/22 00:29:05;;;;;;;1.00;0.80;;;;;;;9.04;84.45;96149.72;5115711;28;20209;-70
2021/01/22 00:31:32;;;;;;;1.30;0.70;;;;;;;8.99;85.09;96154.63;5115165;28;20249;-70
2021/01/22 00:33:58;;;;;;;0.83;0.70;;;;;;;9.00;84.73;96143.13;5115337;28;20210;-69
2021/01/22 00:36:24;;;;;;;0.70;0.60;;;;;;;8.85;85.93;96139.28;5115140;28;20208;-70
2021/01/22 00:38:50;;;;;;;2.43;0.70;;;;;;;8.79;86.62;96131.94;5115326;28;20208;-69
2021/01/22 00:41:17;;;;;;;1.17;0.90;;;;;;;8.67;87.13;96125.19;5115161;28;20209;-69
2021/01/22 00:43:43;;;;;;;0.80;0.80;;;;;;;8.66;87.11;96113.84;5115085;28;20236;-69
2021/01/22 00:46:09;;;;;;;0.97;0.83;;;;;;;8.65;87.61;96116.63;5115128;28;20274;-69
2021/01/22 00:48:36;;;;;;;0.60;0.60;;;;;;;8.56;88.26;96106.94;5113527;28;20221;-69
2021/01/22 00:51:02;;;;;;;0.80;0.80;;;;;;;8.58;88.40;96086.56;5114842;28;20216;-69
2021/01/22 00:53:28;;;;;;;0.80;0.70;;;;;;;8.52;88.26;96095.03;5114856;28;20210;-68
2021/01/22 00:55:54;;;;;;;1.00;0.70;;;;;;;8.39;89.28;96097.16;5114654;28;20217;-70
2021/01/22 00:58:20;;;;;;;1.20;0.90;;;;;;;8.34;89.23;96080.94;5114802;28;20304;-71
2021/01/22 01:00:46;;;;;;;0.90;0.80;;;;;;;8.35;89.72;96083.44;5114904;28;20568;-70
2021/01/22 01:03:12;;;;;;;0.70;0.70;;;;;;;8.33;89.45;96084.56;5114635;28;20320;-71
2021/01/22 01:05:39;;;;;;;0.83;0.80;;;;;;;8.27;89.50;96082.50;5114592;28;20250;-72
2021/01/22 01:08:05;;;;;;;2.60;0.80;;;;;;;8.33;89.52;96082.75;5114648;28;20210;-70
2021/01/22 01:10:31;;;;;;;0.90;0.80;;;;;;;8.29;89.39;96078.75;5114402;28;20617;-70
2021/01/22 01:12:57;;;;;;;0.70;0.70;;;;;;;8.28;89.71;96084.16;5113031;28;20674;-69
2021/01/22 01:15:23;;;;;;;0.60;0.60;;;;;;;8.30;89.21;96087.44;5113970;28;20208;-69
2021/01/22 01:17:49;;;;;;;2.20;1.53;;;;;;;8.28;89.62;96092.03;5114765;28;20215;-69
2021/01/22 01:20:15;;;;;;;0.80;0.70;;;;;;;8.18;90.44;96085.91;5114194;28;20308;-69
2021/01/22 01:22:42;;;;;;;1.10;0.80;;;;;;;8.16;90.02;96088.72;5114287;28;20235;-69
2021/01/22 01:25:09;;;;;;;0.70;0.70;;;;;;;8.21;89.91;96075.16;5114063;28;20696;-71
2021/01/22 01:27:36;;;;;;;0.53;0.53;;;;;;;8.20;88.95;96081.41;5114063;28;20677;-71
2021/01/22 01:30:04;;;;;;;0.90;0.70;;;;;;;8.24;88.78;96088.03;5114389;28;20212;-71
2021/01/22 01:32:30;;;;;;;0.93;0.70;;;;;;;8.18;88.95;96096.44;5113997;28;20203;-71
2021/01/22 01:34:56;;;;;;;0.90;0.80;;;;;;;8.21;88.69;96096.22;5113926;28;20697;-71
2021/01/22 01:37:22;;;;;;;0.73;0.73;;;;;;;8.21;88.09;96097.03;5114045;28;20251;-71
2021/01/22 01:39:49;;;;;;;0.70;0.70;;;;;;;8.24;88.69;96085.38;5112219;28;20674;-71
2021/01/22 01:42:15;;;;;;;0.70;0.70;;;;;;;8.27;88.08;96096.47;5114007;28;20268;-71
2021/01/22 01:44:41;;;;;;;0.60;0.60;;;;;;;8.31;87.61;96089.13;5113824;28;20675;-71
2021/01/22 01:47:07;;;;;;;0.70;0.70;;;;;;;8.26;88.25;96094.00;5114123;28;20253;-71
2021/01/22 01:49:33;;;;;;;0.80;0.70;;;;;;;8.19;88.58;96087.56;5114059;28;20211;-72
2021/01/22 01:51:59;;;;;;;1.17;0.60;;;;;;;8.32;87.63;96078.44;5113719;28;20909;-72
2021/01/22 01:54:26;;;;;;;0.60;0.60;;;;;;;8.27;88.12;96080.66;5113912;28;20216;-72
2021/01/22 01:56:52;;;;;;;0.67;0.60;;;;;;;8.39;87.26;96078.72;5113928;28;20212;-71
2021/01/22 01:59:18;;;;;;;0.67;0.67;;;;;;;8.45;87.17;96088.69;5113992;28;20228;-72
2021/01/22 02:01:45;;;;;;;0.97;0.60;;;;;;;8.39;87.46;96073.47;5114080;28;20212;-72
2021/01/22 02:04:11;;;;;;;0.50;0.50;;;;;;;8.38;87.20;96061.28;5113871;28;20223;-69
2021/01/22 02:06:37;;;;;;;2.00;0.63;;;;;;;8.46;86.95;96079.81;5112209;28;20211;-70
2021/01/22 02:09:04;;;;;;;0.50;0.50;;;;;;;8.47;86.67;96081.47;5113821;28;20217;-68
2021/01/22 02:11:31;;;;;;;0.87;0.53;;;;;;;8.57;86.13;96084.91;5113492;28;20231;-68
2021/01/22 02:13:59;;;;;;;0.70;0.70;;;;;;;8.58;85.53;96078.66;5113964;28;20213;-70
2021/01/22 02:16:26;;;;;;;0.83;0.67;;;;;;;8.52;85.68;96082.69;5113483;28;20207;-68
2021/01/22 02:18:54;;;;;;;0.70;0.70;;;;;;;8.52;85.54;96085.31;5113941;28;20208;-70
2021/01/22 02:21:26;;;;;;;1.07;0.80;;;;;;;8.48;85.56;96072.59;5116235;28;20210;-73
2021/01/22 02:23:54;;;;;;;0.60;0.60;;;;;;;8.47;85.84;96081.47;5120401;27;20232;-72
2021/01/22 02:27:00;;;;;;;3.87;1.17;;;;;;;8.47;85.92;96087.56;5120457;27;20236;-67
2021/01/22 02:29:28;;;;;;;0.87;0.70;;;;;;;8.43;85.60;96082.72;5120148;27;20211;-70
2021/01/22 02:31:55;;;;;;;0.97;0.60;;;;;;;8.43;85.45;96083.56;5118700;27;20213;-70
2021/01/22 02:34:25;;;;;;;1.57;0.90;;;;;;;8.49;85.04;96084.78;5120227;27;20210;-69
2021/01/22 02:36:52;;;;;;;0.70;0.70;;;;;;;8.48;84.95;96073.44;5120321;28;20223;-69
2021/01/22 02:39:22;;;;;;;1.27;0.90;;;;;;;8.45;85.41;96073.69;5120214;28;20698;-69
2021/01/22 02:41:49;;;;;;;0.93;0.70;;;;;;;8.46;85.06;96075.34;5119873;28;20688;-71
2021/01/22 02:44:16;;;;;;;0.87;0.70;;;;;;;8.49;84.64;96079.50;5120322;28;20208;-72
2021/01/22 02:46:44;;;;;;;1.27;0.90;;;;;;;8.52;84.47;96085.31;5120270;28;20208;-72
2021/01/22 02:49:10;;;;;;;0.80;0.80;;;;;;;8.44;84.84;96090.47;5120269;28;20211;-72
2021/01/22 02:51:36;;;;;;;0.90;0.80;;;;;;;8.37;85.12;96080.66;5119914;28;20212;-72
2021/01/22 02:54:02;;;;;;;1.37;0.80;;;;;;;8.37;85.00;96083.28;5120023;28;20300;-71
2021/01/22 02:56:45;;;;;;;0.70;0.63;;;;;;;8.36;85.40;96071.09;5119717;28;20219;-70
2021/01/22 02:59:20;;;;;;;1.27;0.70;;;;;;;8.35;85.14;96075.56;5118847;28;20234;-69
2021/01/22 03:02:03;;;;;;;1.20;0.80;;;;;;;8.37;84.37;96081.50;5120124;28;20205;-72
2021/01/22 03:04:30;;;;;;;2.30;1.00;;;;;;;8.25;85.71;96076.50;5119888;28;20240;-72
2021/01/22 03:06:58;;;;;;;1.30;1.00;;;;;;;8.14;85.75;96081.94;5119805;28;20215;-72
2021/01/22 03:09:26;;;;;;;4.50;1.00;;;;;;;8.03;86.58;96082.06;5119658;28;20209;-71
2021/01/22 03:11:55;;;;;;;2.73;1.00;;;;;;;7.96;86.73;96078.34;5119999;27;20296;-70
2021/01/22 03:14:22;;;;;;;2.27;1.20;;;;;;;7.90;87.14;96084.16;5119578;28;20670;-70
2021/01/22 03:16:50;;;;;;;1.47;0.90;;;;;;;7.87;86.89;96082.66;5119704;28;20203;-69
2021/01/22 03:19:17;;;;;;;1.63;0.77;;;;;;;7.79;87.78;96073.78;5119537;28;20216;-70
2021/01/22 03:21:43;;;;;;;3.73;1.13;;;;;;;7.66;88.08;96078.50;5119808;28;20206;-70
2021/01/22 03:24:09;;;;;;;3.10;0.87;;;;;;;7.62;88.19;96088.47;5117958;28;20221;-68
2021/01/22 03:26:36;;;;;;;1.27;1.10;;;;;;;7.63;88.36;96084.00;5119809;28;20208;-68
2021/01/22 03:29:02;;;;;;;2.03;1.10;;;;;;;7.62;87.77;96087.63;5119594;28;20203;-70
2021/01/22 03:31:28;;;;;;;2.50;1.03;;;;;;;7.54;88.51;96085.66;5119546;28;20708;-70
2021/01/22 03:33:54;;;;;;;1.70;0.90;;;;;;;7.46;88.87;96082.06;5115630;28;20207;-70
2021/01/22 03:36:21;;;;;;;2.93;0.90;;;;;;;7.47;89.39;96073.22;5116902;28;20207;-69
2021/01/22 03:38:47;;;;;;;1.20;0.80;;;;;;;7.50;88.45;96078.19;5116515;28;20210;-71
2021/01/22 03:41:13;;;;;;;2.83;1.00;;;;;;;7.50;88.86;96081.66;5116457;28;20249;-70
2021/01/22 03:43:39;;;;;;;1.50;1.07;;;;;;;7.47;89.00;96084.56;5116165;28;20232;-70
2021/01/22 03:46:05;;;;;;;4.03;1.10;;;;;;;7.54;88.45;96080.41;5116313;28;20209;-70
2021/01/22 03:48:31;;;;;;;2.20;0.97;;;;;;;7.47;88.76;96066.16;5116315;27;20259;-70
2021/01/22 03:50:57;;;;;;;1.33;0.90;;;;;;;7.53;88.34;96077.94;5114559;28;20279;-70
2021/01/22 03:53:24;;;;;;;1.77;0.90;;;;;;;7.47;88.34;96062.72;5116180;28;20691;-70
2021/01/22 03:55:50;;;;;;;3.30;0.97;;;;;;;7.46;89.21;96063.66;5116200;28;20579;-70
2021/01/22 03:58:16;;;;;;;1.97;1.07;;;;;;;7.43;88.61;96048.19;5115704;27;20208;-70
2021/01/22 04:00:43;;;;;;;3.90;1.00;;;;;;;7.48;88.09;96061.75;5116183;28;20268;-72
2021/01/22 04:03:09;;;;;;;2.73;1.10;;;;;;;7.51;88.23;96069.34;5115690;28;20737;-69
2021/01/22 04:05:35;;;;;;;2.40;1.03;;;;;;;7.47;87.83;96073.22;5116059;28;20210;-72
2021/01/22 04:08:01;;;;;;;2.03;0.90;;;;;;;7.45;88.03;96075.13;5115995;28;20209;-72
2021/01/22 04:10:27;;;;;;;3.43;1.20;;;;;;;7.41;88.49;96068.53;5116035;28;20561;-70
2021/01/22 04:12:53;;;;;;;3.17;1.07;;;;;;;7.48;87.44;96057.31;5115923;28;20269;-70
2021/01/22 04:15:19;;;;;;;2.33;0.90;;;;;;;7.51;87.14;96050.94;5114131;28;20661;-70
2021/01/22 04:17:45;;;;;;;2.50;1.27;;;;;;;7.51;87.15;96048.31;5115807;28;20216;-69
2021/01/22 04:20:13;;;;;;;3.53;1.27;;;;;;;7.52;86.92;96050.81;5115363;28;20298;-68
2021/01/22 04:22:39;;;;;;;2.97;1.00;;;;;;;7.52;87.69;96060.47;5115782;28;20240;-69
2021/01/22 04:25:06;;;;;;;1.40;1.00;;;;;;;7.50;87.35;96041.41;5115594;28;20202;-68
2021/01/22 04:27:33;;;;;;;2.00;0.80;;;;;;;7.57;86.81;96045.97;5115597;28;20277;-68
2021/01/22 04:29:59;;;;;;;3.43;1.00;;;;;;;7.54;87.19;96037.53;5115426;28;20223;-68
2021/01/22 04:32:25;;;;;;;2.57;1.00;;;;;;;7.56;86.21;96025.09;5115487;28;20266;-69
2021/01/22 04:34:51;;;;;;;2.20;1.43;;;;;;;7.63;84.97;96026.19;5115084;28;20209;-69
2021/01/22 04:37:17;;;;;;;2.97;1.00;;;;;;;7.72;84.46;96028.00;5115022;28;20235;-68
2021/01/22 04:39:43;;;;;;;2.67;0.93;;;;;;;7.69;84.60;96023.84;5115380;28;20212;-68
2021/01/22 04:42:09;;;;;;;1.60;1.17;;;;;;;7.69;83.98;96025.63;5113315;28;20919;-70
2021/01/22 04:44:37;;;;;;;1.43;1.10;;;;;;;7.82;82.75;96010.38;5115012;28;20208;-69
2021/01/22 04:47:03;;;;;;;3.53;1.30;;;;;;;7.79;83.31;96013.31;5115197;28;20215;-69
2021/01/22 04:49:30;;;;;;;2.20;1.10;;;;;;;7.78;82.84;96003.78;5114959;28;20214;-69
2021/01/22 04:51:58;;;;;;;2.43;1.20;;;;;;;7.78;82.50;95990.63;5115174;28;20229;-69
2021/01/22 04:54:27;;;;;;;4.30;1.10;;;;;;;7.71;83.44;95990.34;5115041;28;20210;-69
2021/01/22 04:56:57;;;;;;;1.10;1.00;;;;;;;7.71;82.71;95987.72;5114530;28;20210;-70
2021/01/22 04:59:30;;;;;;;2.33;1.20;;;;;;;7.84;81.16;95987.44;5114999;28;20634;-68
2021/01/22 05:01:59;;;;;;;1.70;1.10;;;;;;;7.92;80.43;95979.66;5114491;28;20209;-70
2021/01/22 05:04:25;;;;;;;2.30;0.97;;;;;;;8.00;80.46;95985.03;5114782;28;20211;-70
2021/01/22 05:06:51;;;;;;;2.33;0.97;;;;;;;8.07;80.04;95994.00;5113185;28;20713;-70
2021/01/22 05:09:17;;;;;;;1.60;0.90;;;;;;;8.09;80.01;95994.72;5114401;28;20619;-70
2021/01/22 05:11:43;;;;;;;1.60;0.70;;;;;;;8.08;80.38;95966.75;5114571;28;20556;-69
2021/01/22 05:14:09;;;;;;;1.00;0.70;;;;;;;8.03;80.17;95982.13;5114264;28;20303;-70
2021/01/22 05:16:35;;;;;;;1.73;0.90;;;;;;;8.06;79.99;95976.56;5114662;28;20271;-68
2021/01/22 05:19:19;;;;;;;0.83;0.70;;;;;;;7.91;81.78;95970.09;5114346;28;20212;-68
2021/01/22 05:21:46;;;;;;;1.53;0.70;;;;;;;7.89;81.69;95972.06;5114179;28;20580;-68
2021/01/22 05:24:19;;;;;;;1.17;0.70;;;;;;;7.89;81.52;95964.19;5114065;28;20246;-69
2021/01/22 05:26:45;;;;;;;2.53;0.90;;;;;;;7.92;82.14;95966.50;5114407;28;20217;-69
2021/01/22 05:29:15;;;;;;;1.73;0.70;;;;;;;7.85;82.67;95957.53;5114081;28;20232;-68
2021/01/22 05:31:41;;;;;;;1.40;0.80;;;;;;;7.97;82.02;95951.13;5114340;28;20208;-68
2021/01/22 05:34:07;;;;;;;1.07;0.60;;;;;;;7.97;82.14;95956.41;5112556;28;20204;-69
2021/01/22 05:36:34;;;;;;;1.30;0.67;;;;;;;7.95;83.07;95958.34;5114253;28;20252;-68
2021/01/22 05:39:03;;;;;;;1.47;0.80;;;;;;;7.86;83.66;95961.81;5114206;28;20206;-68
2021/01/22 05:41:29;;;;;;;2.03;0.73;;;;;;;7.80;84.52;95954.50;5114233;28;20212;-68
2021/01/22 05:43:55;;;;;;;0.87;0.63;;;;;;;7.81;84.08;95956.16;5114106;28;20236;-68
2021/01/22 05:46:23;;;;;;;0.63;0.60;;;;;;;7.81;84.28;95967.50;5114165;28;20317;-68
2021/01/22 05:49:06;;;;;;;0.70;0.60;;;;;;;7.84;84.22;95961.94;5114166;28;20216;-68
2021/01/22 05:51:32;;;;;;;1.70;0.60;;;;;;;7.84;84.19;95959.31;5114078;28;20662;-68
2021/01/22 05:53:59;;;;;;;1.03;0.60;;;;;;;7.85;84.67;95957.53;5113950;28;20217;-67
2021/01/22 05:56:25;;;;;;;0.60;0.60;;;;;;;7.90;84.05;95955.31;5113049;27;20209;-67
2021/01/22 05:58:51;;;;;;;0.63;0.60;;;;;;;8.07;83.18;95944.88;5112351;28;20239;-71
2021/01/22 06:01:19;;;;;;;0.60;0.47;;;;;;;8.07;83.68;95952.75;5113705;28;20234;-71
2021/01/22 06:03:46;;;;;;;2.30;0.80;;;;;;;8.11;82.82;95959.41;5113543;28;20702;-71
2021/01/22 06:06:13;;;;;;;0.60;0.60;;;;;;;8.15;82.70;95952.84;5113777;28;20240;-70
2021/01/22 06:08:52;;;;;;;0.60;0.57;;;;;;;8.19;83.01;95956.91;5113793;28;20590;-71
2021/01/22 06:11:21;;;;;;;0.93;0.50;;;;;;;8.16;82.73;95949.28;5114778;28;20208;-70
2021/01/22 06:13:49;;;;;;;1.03;0.63;;;;;;;8.15;83.19;95931.00;5115200;28;20704;-71
2021/01/22 06:16:17;;;;;;;0.70;0.60;;;;;;;8.18;82.44;95933.31;5114502;28;20205;-71
2021/01/22 06:18:47;;;;;;;0.70;0.50;;;;;;;8.23;82.71;95931.13;5113675;28;20208;-68
2021/01/22 06:21:17;;;;;;;0.80;0.50;;;;;;;8.17;82.73;95926.41;5113727;28;20215;-68
2021/01/22 06:23:45;;;;;;;1.47;0.60;;;;;;;8.22;82.49;95913.69;5113364;28;20235;-69
2021/01/22 06:26:13;;;;;;;0.73;0.60;;;;;;;8.33;81.76;95916.94;5111932;28;20203;-69
2021/01/22 06:28:41;;;;;;;2.13;0.93;;;;;;;8.35;81.75;95914.19;5113570;28;20587;-67
2021/01/22 06:31:09;;;;;;;1.53;0.60;;;;;;;8.30;82.75;95919.03;5113346;28;20203;-67
2021/01/22 06:33:36;;;;;;;1.37;0.50;;;;;;;8.37;81.02;95917.47;5113228;28;20220;-67
2021/01/22 06:36:03;;;;;;;1.03;0.70;;;;;;;8.32;82.06;95938.16;5113098;28;20238;-67
2021/01/22 06:38:31;;;;;;;2.07;0.60;;;;;;;8.29;82.60;95925.28;5113372;28;20211;-68
2021/01/22 06:40:57;;;;;;;0.90;0.50;;;;;;;8.28;82.02;95934.16;5113098;28;20705;-69
2021/01/22 06:43:24;;;;;;;1.80;0.80;;;;;;;8.30;82.12;95927.78;5113300;28;20234;-69
2021/01/22 06:45:51;;;;;;;2.03;0.70;;;;;;;8.25;82.46;95940.53;5113473;28;20217;-69
2021/01/22 06:48:17;;;;;;;0.80;0.70;;;;;;;8.25;82.58;95937.06;5113000;28;20662;-68
2021/01/22 06:50:43;;;;;;;0.50;0.40;;;;;;;8.25;82.39;95932.63;5112474;28;20211;-69
2021/01/22 06:53:11;;;;;;;0.93;0.80;;;;;;;8.26;82.56;95931.66;5112428;28;20217;-69
2021/01/22 06:56:09;;;;;;;0.90;0.67;;;;;;;8.25;81.59;95926.53;5112869;28;20210;-69
2021/01/22 06:58:35;;;;;;;1.47;0.70;;;;;;;8.24;81.94;95932.78;5113029;28;20252;-68
2021/01/22 07:01:04;;;;;;;0.57;0.50;;;;;;;8.24;81.90;95932.78;5113234;28;20286;-69
2021/01/22 07:03:50;;;;;;;2.13;0.80;;;;;;;8.22;81.69;95919.78;5113115;28;20233;-69
2021/01/22 07:06:51;;;;;;;1.30;0.70;;;;;;;8.20;82.06;95921.72;5112813;28;20208;-69
2021/01/22 07:09:17;;;;;;;1.90;0.60;;;;;;;8.05;83.05;95924.94;5117055;28;20253;-68
2021/01/22 07:11:55;;;;;;;1.13;0.60;;;;;;;8.04;82.61;95921.50;5117112;28;20212;-69
2021/01/22 07:14:43;;;;;;;1.37;0.70;;;;;;;7.97;82.99;95923.00;5116991;28;20247;-68
2021/01/22 07:17:20;;;;;;;1.53;0.80;;;;;;;8.06;82.40;95919.53;5111983;27;20236;-68
2021/01/22 07:19:55;;;;;;;1.40;0.80;;;;;;;8.00;82.79;95919.28;5116896;28;20215;-68
2021/01/22 07:22:21;;;;;;;1.57;0.70;;;;;;;8.00;83.02;95924.53;5116725;28;20208;-69
2021/01/22 07:24:55;;;;;;;1.90;0.60;;;;;;;7.98;82.76;95926.47;5116695;28;20220;-69
2021/01/22 07:27:21;;;;;;;1.33;0.80;;;;;;;7.98;82.71;95915.97;5117049;28;20213;-69
2021/01/22 07:30:17;;;;;;;2.17;0.57;;;;;;;7.97;83.01;95930.09;5116633;28;20218;-68
2021/01/22 07:32:48;;;;;;;2.33;0.80;;;;;;;8.00;82.52;95919.28;5073531;28;20703;-69
2021/01/22 07:35:20;;;;;;;2.03;0.80;;;;;;;8.05;82.04;95927.56;5107399;28;20236;-68
2021/01/22 07:37:47;;;;;;;1.73;0.70;;;;;;;8.03;82.55;95908.47;5116491;28;20206;-68
2021/01/22 07:40:14;;;;;;;1.87;0.87;;;;;;;8.08;81.70;95922.03;5116473;28;20203;-68
2021/01/22 07:42:41;;;;;;;1.57;0.63;;;;;;;8.07;81.62;95925.59;5115677;28;20598;-68
2021/01/22 07:45:09;;;;;;;0.83;0.70;;;;;;;8.09;82.06;95924.50;5115557;28;20207;-68
2021/01/22 07:47:36;;;;;;;2.80;0.80;;;;;;;8.08;82.01;95922.03;5116426;28;20216;-68
2021/01/22 07:50:05;;;;;;;0.97;0.57;;;;;;;8.06;81.74;95926.59;5116371;28;20207;-68
2021/01/22 07:52:35;;;;;;;2.37;0.80;;;;;;;8.06;82.27;95918.69;5116296;28;20266;-68
2021/01/22 07:55:03;;;;;;;1.10;0.50;;;;;;;8.20;80.45;95926.16;5116205;28;20211;-68
2021/01/22 07:57:29;;;;;;;2.27;0.80;;;;;;;8.27;80.55;95933.31;5116176;28;20215;-68
2021/01/22 07:59:57;;;;;;;2.17;0.70;;;;;;;8.31;80.16;95939.13;5115778;28;20233;-69
2021/01/22 08:02:25;;;;;;;0.90;0.77;;;;;;;8.39;79.39;95933.97;5115989;28;20226;-67
2021/01/22 08:04:59;;;;;;;2.00;0.90;;;;;;;8.36;79.38;95950.03;5116105;28;20291;-68
2021/01/22 08:07:33;;;;;;;1.90;0.60;;;;;;;8.33;80.27;95942.44;5116267;28;20212;-69
2021/01/22 08:09:59;;;;;;;0.83;0.60;;;;;;;8.39;80.22;95947.13;5114198;28;20223;-68
2021/01/22 08:12:24;;;;;;;1.73;0.60;;;;;;;8.47;79.71;95944.59;5115813;28;20240;-68
2021/01/22 08:14:51;;;;;;;2.17;0.70;;;;;;;8.45;80.33;95949.19;5115768;28;20239;-68
2021/01/22 08:17:17;;;;;;;3.73;0.73;;;;;;;8.41;80.77;95946.03;5115545;28;20289;-68
2021/01/22 08:19:44;;;;;;;1.67;0.77;;;;;;;8.45;80.20;95933.38;5114651;28;20262;-68
2021/01/22 08:22:14;;;;;;;1.43;0.70;;;;;;;8.54;79.92;95932.50;5115598;28;20213;-68
2021/01/22 08:24:46;;;;;;;1.30;0.60;;;;;;;8.68;79.04;95935.47;5115552;28;20216;-68
2021/01/22 08:27:12;;;;;;;1.73;0.70;;;;;;;8.78;78.58;95945.94;5115639;28;20213;-70
2021/01/22 08:29:39;;;;;;;0.87;0.60;;;;;;;8.96;78.40;95941.53;5115575;28;20283;-69
2021/01/22 08:32:06;;;;;;;1.97;0.90;;;;;;;9.03;78.49;95961.03;5115543;28;20220;-69
2021/01/22 08:34:34;;;;;;;1.33;0.60;;;;;;;9.11;77.60;95947.94;5112982;28;20208;-69
2021/01/22 08:37:00;;;;;;;1.77;0.50;;;;;;;9.29;76.36;95948.75;5111938;28;20209;-69
2021/01/22 08:39:26;;;;;;;1.23;0.70;;;;;;;9.38;76.62;95942.59;5114459;28;20215;-69
2021/01/22 08:41:53;;;;;;;0.90;0.60;;;;;;;9.50;75.24;95946.66;5114334;28;20308;-70
2021/01/22 08:44:19;;;;;;;0.93;0.70;;;;;;;9.59;75.27;95945.72;5112080;28;20506;-70
2021/01/22 08:46:50;;;;;;;0.83;0.70;;;;;;;9.66;74.31;95946.78;5112989;28;20207;-69
2021/01/22 08:49:17;;;;;;;2.83;0.90;;;;;;;9.78;74.42;95950.84;5114420;28;20206;-68
2021/01/22 08:51:44;;;;;;;4.00;0.73;;;;;;;9.94;73.74;95948.28;5113459;28;20260;-69
2021/01/22 08:54:10;;;;;;;0.87;0.67;;;;;;;10.12;73.55;95938.56;5113689;28;20216;-69
2021/01/22 08:56:36;;;;;;;0.93;0.73;;;;;;;10.26;72.43;95932.69;5114659;28;20206;-68
2021/01/22 08:59:08;;;;;;;1.63;0.73;;;;;;;10.45;71.16;95929.84;5114686;28;20243;-69
2021/01/22 09:01:54;;;;;;;1.70;0.70;;;;;;;10.49;71.15;95929.34;5113322;28;20207;-68
2021/01/22 09:04:25;;;;;;;1.90;0.90;;;;;;;10.46;71.33;95944.69;5112255;28;20235;-68
2021/01/22 09:06:52;;;;;;;2.43;0.70;;;;;;;10.43;71.30;95937.91;5112288;28;20210;-68
2021/01/22 09:09:39;;;;;;;2.13;0.70;;;;;;;10.32;70.35;95950.53;5113375;28;20209;-68
2021/01/22 09:12:13;;;;;;;1.37;0.90;;;;;;;10.26;70.94;95935.31;5113494;28;20244;-67
2021/01/22 09:14:47;;;;;;;2.23;0.80;;;;;;;10.24;70.54;95942.56;5111247;28;20207;-69
2021/01/22 09:17:23;;;;;;;2.90;0.80;;;;;;;10.09;70.92;95938.88;5114480;28;20667;-67
2021/01/22 09:20:00;;;;;;;1.77;0.70;;;;;;;9.93;71.69;95947.50;5114497;28;20223;-68
2021/01/22 09:22:28;;;;;;;3.00;0.90;;;;;;;9.94;72.68;95945.66;5114191;28;20256;-68
2021/01/22 09:24:54;;;;;;;3.10;0.70;;;;;;;9.93;72.40;95949.28;5114260;28;20208;-68
2021/01/22 09:27:21;;;;;;;1.63;0.70;;;;;;;10.04;72.58;95956.97;5112312;28;20671;-68
2021/01/22 09:29:48;;;;;;;1.40;0.90;;;;;;;10.09;72.20;95944.16;5114883;28;20259;-68
2021/01/22 09:32:14;;;;;;;1.27;0.80;;;;;;;10.12;71.44;95964.94;5114489;28;20217;-68
2021/01/22 09:34:41;;;;;;;1.77;0.70;;;;;;;10.11;72.33;95958.00;5114642;28;20209;-68
2021/01/22 09:37:07;;;;;;;0.87;0.77;;;;;;;10.23;71.96;95972.59;5114545;28;20211;-68
2021/01/22 09:39:33;;;;;;;2.00;0.70;;;;;;;10.35;70.83;95966.06;5113977;28;20214;-68
2021/01/22 09:41:59;;;;;;;1.07;0.67;;;;;;;10.41;70.93;95970.72;5113982;28;20217;-68
2021/01/22 09:44:25;;;;;;;2.63;0.80;;;;;;;10.52;70.94;95973.91;5113763;28;20247;-68
2021/01/22 09:46:52;;;;;;;2.63;0.73;;;;;;;10.65;70.27;95974.28;5114208;28;20241;-68
2021/01/22 09:49:18;;;;;;;2.27;0.83;;;;;;;10.68;70.67;95971.34;5113840;28;20210;-68
2021/01/22 09:51:43;;;;;;;1.60;1.00;;;;;;;10.71;69.93;95965.75;5114109;28;20304;-68
2021/01/22 09:54:10;;;;;;;3.13;0.87;;;;;;;10.75;69.85;95963.59;5112549;28;20725;-68
2021/01/22 09:56:36;;;;;;;1.33;0.80;;;;;;;10.79;70.27;95971.06;5113809;28;20210;-68
2021/01/22 09:59:05;;;;;;;1.20;0.70;;;;;;;10.78;70.64;95969.44;5113734;28;20611;-68
2021/01/22 10:01:31;;;;;;;1.50;0.90;;;;;;;10.94;69.70;95960.72;5113942;28;20247;-68
2021/01/22 10:03:58;;;;;;;1.23;0.67;;;;;;;10.96;68.84;95961.38;5113377;28;20326;-68
2021/01/22 10:06:24;;;;;;;1.73;0.70;;;;;;;10.96;68.86;95956.91;5113811;28;20204;-68
2021/01/22 10:08:50;;;;;;;1.53;0.77;;;;;;;11.05;68.64;95952.47;5113888;28;20230;-68
2021/01/22 10:11:16;;;;;;;2.43;0.90;;;;;;;11.17;68.30;95957.31;5112569;28;20209;-68
2021/01/22 10:13:42;;;;;;;2.33;1.13;;;;;;;11.21;67.94;95944.59;5113082;28;20300;-68
2021/01/22 10:16:08;;;;;;;2.33;0.83;;;;;;;11.30;68.03;95948.88;5113098;28;20217;-68
2021/01/22 10:18:34;;;;;;;2.50;1.20;;;;;;;11.32;67.69;95941.63;5113104;28;20302;-68
2021/01/22 10:21:00;;;;;;;2.57;0.90;;;;;;;11.34;65.79;95939.66;5111417;28;20221;-68
2021/01/22 10:23:26;;;;;;;0.83;0.60;;;;;;;11.43;66.08;95943.97;5109428;28;20711;-68
2021/01/22 10:25:52;;;;;;;2.13;0.77;;;;;;;11.52;65.52;95927.94;5111949;28;20219;-69
2021/01/22 10:28:18;;;;;;;2.47;0.83;;;;;;;11.58;64.93;95926.44;5112301;28;20241;-69
2021/01/22 10:30:48;;;;;;;2.00;0.97;;;;;;;11.55;64.66;95922.31;5111184;28;20218;-67
2021/01/22 10:33:14;;;;;;;2.80;0.77;;;;;;;11.60;64.90;95929.75;5110762;28;20694;-68
2021/01/22 10:35:40;;;;;;;2.43;1.10;;;;;;;11.60;64.25;95924.47;5112737;28;20210;-67
2021/01/22 10:38:06;;;;;;;2.87;0.93;;;;;;;11.68;64.85;95922.66;5112811;28;20202;-68
2021/01/22 10:40:32;;;;;;;1.40;0.87;;;;;;;11.70;64.90;95922.50;5112669;28;20215;-67
2021/01/22 10:42:58;;;;;;;1.60;0.80;;;;;;;11.86;65.24;95925.16;5114729;28;20248;-68
2021/01/22 10:45:24;;;;;;;0.80;0.70;;;;;;;11.95;64.86;95929.41;5116732;28;20269;-67
2021/01/22 10:47:50;;;;;;;0.70;0.67;;;;;;;12.02;65.18;95930.41;5115523;28;20215;-68
2021/01/22 10:50:18;;;;;;;1.47;0.93;;;;;;;12.08;64.29;95930.56;5116676;28;20209;-67
2021/01/22 10:52:44;;;;;;;0.60;0.60;;;;;;;12.26;63.42;95930.34;5116938;28;20287;-67
2021/01/22 10:55:12;;;;;;;1.40;0.97;;;;;;;12.30;63.67;95924.53;5116817;28;20423;-67
2021/01/22 10:57:38;;;;;;;3.03;0.90;;;;;;;12.42;63.25;95928.47;5116819;28;20599;-67
2021/01/22 11:00:06;;;;;;;1.20;0.83;;;;;;;12.51;63.47;95921.34;5116577;28;20321;-67
2021/01/22 11:02:32;;;;;;;1.17;0.70;;;;;;;12.54;62.45;95926.31;5116566;28;20560;-67
2021/01/22 11:04:58;;;;;;;1.30;0.83;;;;;;;12.51;62.23;95921.34;5116576;28;20216;-67
2021/01/22 11:07:24;;;;;;;1.77;0.57;;;;;;;12.58;61.67;95915.19;5116496;28;20622;-67
2021/01/22 11:09:50;;;;;;;1.93;0.73;;;;;;;12.59;63.03;95918.69;5116381;27;20233;-67
2021/01/22 11:12:17;;;;;;;1.53;0.90;;;;;;;12.63;62.99;95919.97;5115704;28;20216;-67
2021/01/22 11:14:45;;;;;;;6.80;1.10;;;;;;;12.72;62.82;95911.81;5115964;28;20213;-67
2021/01/22 11:17:11;;;;;;;3.10;0.80;;;;;;;12.79;62.77;95904.00;5116170;28;20202;-66
2021/01/22 11:19:37;;;;;;;1.03;0.60;;;;;;;12.79;61.88;95909.31;5116499;28;20217;-67
2021/01/22 11:22:03;;;;;;;1.07;0.80;;;;;;;12.80;62.11;95905.66;5116413;28;20253;-67
2021/01/22 11:24:29;;;;;;;0.73;0.67;;;;;;;12.74;61.63;95901.03;5116013;28;20326;-67
2021/01/22 11:26:55;;;;;;;2.67;0.77;;;;;;;12.70;60.94;95910.31;5116281;28;20247;-67
2021/01/22 11:29:22;;;;;;;0.90;0.60;;;;;;;12.67;61.84;95895.63;5116506;28;20297;-67
2021/01/22 11:31:48;;;;;;;0.90;0.60;;;;;;;12.67;60.54;95892.13;5115884;28;20678;-67
2021/01/22 11:34:14;;;;;;;4.03;0.77;;;;;;;12.69;59.89;95900.72;5116012;27;20221;-67
2021/01/22 11:36:40;;;;;;;1.83;0.60;;;;;;;12.66;60.55;95883.34;5115908;28;20303;-66
2021/01/22 11:39:06;;;;;;;0.53;0.53;;;;;;;12.62;61.65;95892.66;5113785;28;20246;-68
2021/01/22 11:41:32;;;;;;;1.00;0.60;;;;;;;12.65;61.97;95884.34;5116014;28;20244;-67
2021/01/22 11:43:58;;;;;;;0.80;0.80;;;;;;;12.68;61.47;95891.13;5115513;28;20690;-67